sensor_id;sensor_type;location;lat;lon;timestamp;P1;durP1;ratioP1;P2;durP2;ratioP2
76065;SDS011;64763;48.928;8.474;2022-12-17T00:01:31;23.27;;;10.38;;
76065;SDS011;64763;48.928;8.474;2022-12-17T00:04:15;24.38;;;10.93;;
76065;SDS011;64763;48.928;8.474;2022-12-17T00:06:59;27.08;;;11.95;;
76065;SDS011;64763;48.928;8.474;2022-12-17T00:09:43;24.42;;;11.73;;
76065;SDS011;64763;48.928;8.474;2022-12-17T00:12:26;25.20;;;12.10;;
76065;SDS011;64763;48.928;8.474;2022-12-17T00:15:11;22.23;;;9.73;;
76065;SDS011;64763;48.928;8.474;2022-12-17T00:18:02;22.52;;;11.38;;
76065;SDS011;64763;48.928;8.474;2022-12-17T00:20:53;23.15;;;11.30;;
76065;SDS011;64763;48.928;8.474;2022-12-17T00:23:40;21.65;;;10.20;;
76065;SDS011;64763;48.928;8.474;2022-12-17T00:26:24;22.90;;;10.48;;
76065;SDS011;64763;48.928;8.474;2022-12-17T00:29:08;22.25;;;10.70;;
76065;SDS011;64763;48.928;8.474;2022-12-17T00:31:52;24.85;;;9.75;;
76065;SDS011;64763;48.928;8.474;2022-12-17T00:34:36;21.70;;;9.88;;
76065;SDS011;64763;48.928;8.474;2022-12-17T00:37:20;19.95;;;9.88;;
76065;SDS011;64763;48.928;8.474;2022-12-17T00:40:04;24.52;;;10.48;;
76065;SDS011;64763;48.928;8.474;2022-12-17T00:42:57;23.23;;;10.95;;
76065;SDS011;64763;48.928;8.474;2022-12-17T00:45:48;26.25;;;11.65;;
76065;SDS011;64763;48.928;8.474;2022-12-17T00:48:32;24.85;;;10.85;;
76065;SDS011;64763;48.928;8.474;2022-12-17T00:51:33;24.77;;;11.52;;
76065;SDS011;64763;48.928;8.474;2022-12-17T00:54:17;24.48;;;10.77;;
76065;SDS011;64763;48.928;8.474;2022-12-17T00:57:00;23.75;;;11.25;;
76065;SDS011;64763;48.928;8.474;2022-12-17T00:59:44;30.55;;;11.65;;
76065;SDS011;64763;48.928;8.474;2022-12-17T01:02:28;23.05;;;10.98;;
76065;SDS011;64763;48.928;8.474;2022-12-17T01:05:12;21.90;;;11.13;;
76065;SDS011;64763;48.928;8.474;2022-12-17T01:07:56;24.27;;;12.02;;
76065;SDS011;64763;48.928;8.474;2022-12-17T01:10:49;23.77;;;11.32;;
76065;SDS011;64763;48.928;8.474;2022-12-17T01:13:33;23.50;;;10.80;;
76065;SDS011;64763;48.928;8.474;2022-12-17T01:16:17;25.10;;;11.32;;
76065;SDS011;64763;48.928;8.474;2022-12-17T01:19:01;26.40;;;11.27;;
76065;SDS011;64763;48.928;8.474;2022-12-17T01:21:45;23.27;;;10.88;;
76065;SDS011;64763;48.928;8.474;2022-12-17T01:24:29;18.70;;;9.95;;
76065;SDS011;64763;48.928;8.474;2022-12-17T01:27:13;20.67;;;10.82;;
76065;SDS011;64763;48.928;8.474;2022-12-17T01:29:57;32.22;;;11.68;;
76065;SDS011;64763;48.928;8.474;2022-12-17T01:32:41;25.85;;;11.82;;
76065;SDS011;64763;48.928;8.474;2022-12-17T01:35:25;34.33;;;11.70;;
76065;SDS011;64763;48.928;8.474;2022-12-17T01:38:09;29.67;;;11.50;;
76065;SDS011;64763;48.928;8.474;2022-12-17T01:40:54;23.38;;;10.55;;
76065;SDS011;64763;48.928;8.474;2022-12-17T01:43:38;29.38;;;13.30;;
76065;SDS011;64763;48.928;8.474;2022-12-17T01:46:22;34.60;;;12.00;;
76065;SDS011;64763;48.928;8.474;2022-12-17T01:49:06;31.58;;;12.65;;
76065;SDS011;64763;48.928;8.474;2022-12-17T01:51:52;31.17;;;12.48;;
76065;SDS011;64763;48.928;8.474;2022-12-17T01:54:36;29.80;;;12.02;;
76065;SDS011;64763;48.928;8.474;2022-12-17T01:57:21;24.08;;;10.88;;
76065;SDS011;64763;48.928;8.474;2022-12-17T02:00:08;27.25;;;12.23;;
76065;SDS011;64763;48.928;8.474;2022-12-17T02:02:54;22.38;;;11.82;;
76065;SDS011;64763;48.928;8.474;2022-12-17T02:05:41;25.33;;;10.82;;
76065;SDS011;64763;48.928;8.474;2022-12-17T02:08:35;23.40;;;10.27;;
76065;SDS011;64763;48.928;8.474;2022-12-17T02:14:39;21.30;;;8.95;;
76065;SDS011;64763;48.928;8.474;2022-12-17T02:17:28;18.48;;;9.48;;
76065;SDS011;64763;48.928;8.474;2022-12-17T02:20:33;20.33;;;10.35;;
76065;SDS011;64763;48.928;8.474;2022-12-17T02:26:44;20.65;;;9.20;;
76065;SDS011;64763;48.928;8.474;2022-12-17T02:29:39;19.35;;;9.60;;
76065;SDS011;64763;48.928;8.474;2022-12-17T02:32:25;23.75;;;10.52;;
76065;SDS011;64763;48.928;8.474;2022-12-17T02:35:13;23.63;;;9.85;;
76065;SDS011;64763;48.928;8.474;2022-12-17T02:37:59;20.58;;;9.80;;
76065;SDS011;64763;48.928;8.474;2022-12-17T02:40:43;24.80;;;10.02;;
76065;SDS011;64763;48.928;8.474;2022-12-17T02:43:28;22.35;;;10.35;;
76065;SDS011;64763;48.928;8.474;2022-12-17T02:46:13;17.50;;;8.63;;
76065;SDS011;64763;48.928;8.474;2022-12-17T02:48:57;21.08;;;9.18;;
76065;SDS011;64763;48.928;8.474;2022-12-17T02:51:41;19.55;;;7.97;;
76065;SDS011;64763;48.928;8.474;2022-12-17T02:54:29;13.43;;;7.45;;
76065;SDS011;64763;48.928;8.474;2022-12-17T02:57:14;16.58;;;7.85;;
76065;SDS011;64763;48.928;8.474;2022-12-17T02:59:58;15.15;;;7.45;;
76065;SDS011;64763;48.928;8.474;2022-12-17T03:02:42;15.65;;;7.00;;
76065;SDS011;64763;48.928;8.474;2022-12-17T03:05:26;15.82;;;7.43;;
76065;SDS011;64763;48.928;8.474;2022-12-17T03:08:10;16.52;;;6.70;;
76065;SDS011;64763;48.928;8.474;2022-12-17T03:10:54;17.33;;;6.70;;
76065;SDS011;64763;48.928;8.474;2022-12-17T03:13:38;15.23;;;7.05;;
76065;SDS011;64763;48.928;8.474;2022-12-17T03:16:22;16.63;;;7.25;;
76065;SDS011;64763;48.928;8.474;2022-12-17T03:19:07;12.00;;;6.43;;
76065;SDS011;64763;48.928;8.474;2022-12-17T03:21:52;15.40;;;7.65;;
76065;SDS011;64763;48.928;8.474;2022-12-17T03:24:36;13.25;;;7.32;;
76065;SDS011;64763;48.928;8.474;2022-12-17T03:27:20;18.60;;;6.95;;
76065;SDS011;64763;48.928;8.474;2022-12-17T03:30:04;15.55;;;7.65;;
76065;SDS011;64763;48.928;8.474;2022-12-17T03:32:49;15.63;;;7.57;;
76065;SDS011;64763;48.928;8.474;2022-12-17T03:35:33;16.27;;;7.75;;
76065;SDS011;64763;48.928;8.474;2022-12-17T03:38:17;14.75;;;6.68;;
76065;SDS011;64763;48.928;8.474;2022-12-17T03:41:00;18.52;;;8.13;;
76065;SDS011;64763;48.928;8.474;2022-12-17T03:43:44;19.25;;;8.10;;
76065;SDS011;64763;48.928;8.474;2022-12-17T03:46:28;15.63;;;7.90;;
76065;SDS011;64763;48.928;8.474;2022-12-17T03:49:12;15.27;;;7.25;;
76065;SDS011;64763;48.928;8.474;2022-12-17T03:51:56;21.27;;;7.45;;
76065;SDS011;64763;48.928;8.474;2022-12-17T03:54:40;18.58;;;8.70;;
76065;SDS011;64763;48.928;8.474;2022-12-17T03:57:24;25.38;;;8.80;;
76065;SDS011;64763;48.928;8.474;2022-12-17T04:00:16;21.48;;;9.02;;
76065;SDS011;64763;48.928;8.474;2022-12-17T04:02:59;17.35;;;8.70;;
76065;SDS011;64763;48.928;8.474;2022-12-17T04:05:43;16.65;;;8.30;;
76065;SDS011;64763;48.928;8.474;2022-12-17T04:08:27;16.40;;;8.13;;
76065;SDS011;64763;48.928;8.474;2022-12-17T04:11:11;19.13;;;8.30;;
76065;SDS011;64763;48.928;8.474;2022-12-17T04:13:55;20.52;;;8.65;;
76065;SDS011;64763;48.928;8.474;2022-12-17T04:16:39;25.48;;;8.93;;
76065;SDS011;64763;48.928;8.474;2022-12-17T04:19:23;17.88;;;8.38;;
76065;SDS011;64763;48.928;8.474;2022-12-17T04:22:07;17.20;;;7.65;;
76065;SDS011;64763;48.928;8.474;2022-12-17T04:24:51;16.42;;;6.93;;
76065;SDS011;64763;48.928;8.474;2022-12-17T04:27:35;16.13;;;8.15;;
76065;SDS011;64763;48.928;8.474;2022-12-17T04:30:19;14.50;;;7.50;;
76065;SDS011;64763;48.928;8.474;2022-12-17T04:33:03;19.83;;;9.35;;
76065;SDS011;64763;48.928;8.474;2022-12-17T04:35:46;20.35;;;9.40;;
76065;SDS011;64763;48.928;8.474;2022-12-17T04:38:30;17.17;;;7.50;;
76065;SDS011;64763;48.928;8.474;2022-12-17T04:41:14;14.15;;;7.63;;
76065;SDS011;64763;48.928;8.474;2022-12-17T04:43:58;18.63;;;8.38;;
76065;SDS011;64763;48.928;8.474;2022-12-17T04:46:42;18.23;;;8.23;;
76065;SDS011;64763;48.928;8.474;2022-12-17T04:49:26;18.00;;;8.60;;
76065;SDS011;64763;48.928;8.474;2022-12-17T04:52:10;17.30;;;7.63;;
76065;SDS011;64763;48.928;8.474;2022-12-17T04:54:54;17.27;;;8.35;;
76065;SDS011;64763;48.928;8.474;2022-12-17T04:57:38;18.58;;;8.85;;
76065;SDS011;64763;48.928;8.474;2022-12-17T05:00:22;33.58;;;11.07;;
76065;SDS011;64763;48.928;8.474;2022-12-17T05:03:06;35.35;;;12.48;;
76065;SDS011;64763;48.928;8.474;2022-12-17T05:05:54;40.65;;;11.35;;
76065;SDS011;64763;48.928;8.474;2022-12-17T05:08:38;40.38;;;13.18;;
76065;SDS011;64763;48.928;8.474;2022-12-17T05:11:22;51.45;;;13.02;;
76065;SDS011;64763;48.928;8.474;2022-12-17T05:14:06;35.47;;;11.80;;
76065;SDS011;64763;48.928;8.474;2022-12-17T05:16:50;25.33;;;9.13;;
76065;SDS011;64763;48.928;8.474;2022-12-17T05:19:34;27.23;;;9.55;;
76065;SDS011;64763;48.928;8.474;2022-12-17T05:22:18;26.10;;;11.38;;
76065;SDS011;64763;48.928;8.474;2022-12-17T05:25:02;25.88;;;10.10;;
76065;SDS011;64763;48.928;8.474;2022-12-17T05:27:46;34.55;;;12.18;;
76065;SDS011;64763;48.928;8.474;2022-12-17T05:30:30;25.08;;;9.55;;
76065;SDS011;64763;48.928;8.474;2022-12-17T05:33:14;23.67;;;9.80;;
76065;SDS011;64763;48.928;8.474;2022-12-17T05:35:59;28.02;;;10.73;;
76065;SDS011;64763;48.928;8.474;2022-12-17T05:38:43;45.05;;;12.40;;
76065;SDS011;64763;48.928;8.474;2022-12-17T05:41:27;27.75;;;11.35;;
76065;SDS011;64763;48.928;8.474;2022-12-17T05:44:11;27.58;;;10.02;;
76065;SDS011;64763;48.928;8.474;2022-12-17T05:46:55;24.17;;;10.13;;
76065;SDS011;64763;48.928;8.474;2022-12-17T05:49:39;37.95;;;11.00;;
76065;SDS011;64763;48.928;8.474;2022-12-17T05:52:23;48.38;;;11.05;;
76065;SDS011;64763;48.928;8.474;2022-12-17T05:55:07;39.78;;;11.82;;
76065;SDS011;64763;48.928;8.474;2022-12-17T05:58:02;46.17;;;11.82;;
76065;SDS011;64763;48.928;8.474;2022-12-17T06:00:47;55.30;;;12.73;;
76065;SDS011;64763;48.928;8.474;2022-12-17T06:03:31;33.88;;;12.02;;
76065;SDS011;64763;48.928;8.474;2022-12-17T06:06:15;32.60;;;11.27;;
76065;SDS011;64763;48.928;8.474;2022-12-17T06:08:59;30.27;;;13.05;;
76065;SDS011;64763;48.928;8.474;2022-12-17T06:11:43;33.95;;;11.65;;
76065;SDS011;64763;48.928;8.474;2022-12-17T06:14:27;32.38;;;11.80;;
76065;SDS011;64763;48.928;8.474;2022-12-17T06:17:11;30.15;;;11.63;;
76065;SDS011;64763;48.928;8.474;2022-12-17T06:19:55;36.83;;;13.27;;
76065;SDS011;64763;48.928;8.474;2022-12-17T06:22:39;35.28;;;11.80;;
76065;SDS011;64763;48.928;8.474;2022-12-17T06:25:22;23.20;;;10.88;;
76065;SDS011;64763;48.928;8.474;2022-12-17T06:28:07;24.02;;;9.70;;
76065;SDS011;64763;48.928;8.474;2022-12-17T06:30:52;23.20;;;9.75;;
76065;SDS011;64763;48.928;8.474;2022-12-17T06:33:36;22.10;;;9.32;;
76065;SDS011;64763;48.928;8.474;2022-12-17T06:36:21;16.23;;;7.20;;
76065;SDS011;64763;48.928;8.474;2022-12-17T06:39:05;14.35;;;5.72;;
76065;SDS011;64763;48.928;8.474;2022-12-17T06:41:49;10.85;;;5.75;;
76065;SDS011;64763;48.928;8.474;2022-12-17T06:44:33;12.77;;;7.10;;
76065;SDS011;64763;48.928;8.474;2022-12-17T06:47:17;16.23;;;6.10;;
76065;SDS011;64763;48.928;8.474;2022-12-17T06:50:01;15.93;;;6.22;;
76065;SDS011;64763;48.928;8.474;2022-12-17T06:52:45;11.20;;;6.30;;
76065;SDS011;64763;48.928;8.474;2022-12-17T06:55:43;15.70;;;6.57;;
76065;SDS011;64763;48.928;8.474;2022-12-17T06:58:26;23.63;;;7.80;;
76065;SDS011;64763;48.928;8.474;2022-12-17T07:01:10;12.73;;;6.10;;
76065;SDS011;64763;48.928;8.474;2022-12-17T07:03:54;12.05;;;5.93;;
76065;SDS011;64763;48.928;8.474;2022-12-17T07:06:38;12.00;;;6.47;;
76065;SDS011;64763;48.928;8.474;2022-12-17T07:09:22;12.40;;;5.40;;
76065;SDS011;64763;48.928;8.474;2022-12-17T07:12:06;11.63;;;6.93;;
76065;SDS011;64763;48.928;8.474;2022-12-17T07:14:50;15.07;;;7.00;;
76065;SDS011;64763;48.928;8.474;2022-12-17T07:17:34;16.60;;;6.60;;
76065;SDS011;64763;48.928;8.474;2022-12-17T07:20:18;11.48;;;5.45;;
76065;SDS011;64763;48.928;8.474;2022-12-17T07:23:01;12.70;;;5.90;;
76065;SDS011;64763;48.928;8.474;2022-12-17T07:25:45;13.30;;;6.18;;
76065;SDS011;64763;48.928;8.474;2022-12-17T07:28:29;11.90;;;5.43;;
76065;SDS011;64763;48.928;8.474;2022-12-17T07:31:13;13.13;;;6.47;;
76065;SDS011;64763;48.928;8.474;2022-12-17T07:34:17;8.95;;;5.80;;
76065;SDS011;64763;48.928;8.474;2022-12-17T07:37:01;15.52;;;6.97;;
76065;SDS011;64763;48.928;8.474;2022-12-17T07:39:45;14.40;;;6.25;;
76065;SDS011;64763;48.928;8.474;2022-12-17T07:42:29;13.48;;;5.82;;
76065;SDS011;64763;48.928;8.474;2022-12-17T07:45:13;14.05;;;6.20;;
76065;SDS011;64763;48.928;8.474;2022-12-17T07:47:57;16.67;;;6.88;;
76065;SDS011;64763;48.928;8.474;2022-12-17T07:50:41;19.95;;;7.95;;
76065;SDS011;64763;48.928;8.474;2022-12-17T07:53:25;23.67;;;8.45;;
76065;SDS011;64763;48.928;8.474;2022-12-17T07:56:09;20.88;;;7.30;;
76065;SDS011;64763;48.928;8.474;2022-12-17T07:58:52;15.52;;;7.55;;
76065;SDS011;64763;48.928;8.474;2022-12-17T08:01:36;13.65;;;6.68;;
76065;SDS011;64763;48.928;8.474;2022-12-17T08:04:20;14.20;;;6.05;;
76065;SDS011;64763;48.928;8.474;2022-12-17T08:07:04;12.40;;;5.97;;
76065;SDS011;64763;48.928;8.474;2022-12-17T08:09:48;12.68;;;5.88;;
76065;SDS011;64763;48.928;8.474;2022-12-17T08:12:32;14.68;;;7.05;;
76065;SDS011;64763;48.928;8.474;2022-12-17T08:15:16;15.90;;;7.75;;
76065;SDS011;64763;48.928;8.474;2022-12-17T08:18:01;15.48;;;6.93;;
76065;SDS011;64763;48.928;8.474;2022-12-17T08:20:45;16.73;;;6.60;;
76065;SDS011;64763;48.928;8.474;2022-12-17T08:23:29;17.75;;;7.53;;
76065;SDS011;64763;48.928;8.474;2022-12-17T08:26:13;13.77;;;7.40;;
76065;SDS011;64763;48.928;8.474;2022-12-17T08:28:57;16.40;;;6.30;;
76065;SDS011;64763;48.928;8.474;2022-12-17T08:31:40;13.77;;;6.20;;
76065;SDS011;64763;48.928;8.474;2022-12-17T08:34:24;16.30;;;6.88;;
76065;SDS011;64763;48.928;8.474;2022-12-17T08:37:08;13.50;;;6.00;;
76065;SDS011;64763;48.928;8.474;2022-12-17T08:39:52;14.55;;;6.40;;
76065;SDS011;64763;48.928;8.474;2022-12-17T08:42:36;13.25;;;6.97;;
76065;SDS011;64763;48.928;8.474;2022-12-17T08:45:20;13.27;;;6.45;;
76065;SDS011;64763;48.928;8.474;2022-12-17T08:48:04;13.73;;;6.70;;
76065;SDS011;64763;48.928;8.474;2022-12-17T08:50:49;15.07;;;7.05;;
76065;SDS011;64763;48.928;8.474;2022-12-17T08:53:33;12.48;;;6.35;;
76065;SDS011;64763;48.928;8.474;2022-12-17T08:56:17;14.60;;;7.18;;
76065;SDS011;64763;48.928;8.474;2022-12-17T08:59:00;14.23;;;7.13;;
76065;SDS011;64763;48.928;8.474;2022-12-17T09:01:44;15.98;;;7.03;;
76065;SDS011;64763;48.928;8.474;2022-12-17T09:04:28;18.50;;;6.97;;
76065;SDS011;64763;48.928;8.474;2022-12-17T09:07:12;16.75;;;7.78;;
76065;SDS011;64763;48.928;8.474;2022-12-17T09:09:56;16.23;;;7.97;;
76065;SDS011;64763;48.928;8.474;2022-12-17T09:12:40;16.52;;;7.65;;
76065;SDS011;64763;48.928;8.474;2022-12-17T09:15:24;18.42;;;8.20;;
76065;SDS011;64763;48.928;8.474;2022-12-17T09:18:08;16.35;;;7.47;;
76065;SDS011;64763;48.928;8.474;2022-12-17T09:20:52;17.38;;;7.57;;
76065;SDS011;64763;48.928;8.474;2022-12-17T09:23:37;14.57;;;7.15;;
76065;SDS011;64763;48.928;8.474;2022-12-17T09:26:21;20.85;;;8.80;;
76065;SDS011;64763;48.928;8.474;2022-12-17T09:29:05;17.65;;;8.02;;
76065;SDS011;64763;48.928;8.474;2022-12-17T09:31:49;17.88;;;8.57;;
76065;SDS011;64763;48.928;8.474;2022-12-17T09:34:33;19.23;;;9.02;;
76065;SDS011;64763;48.928;8.474;2022-12-17T09:37:16;16.50;;;8.77;;
76065;SDS011;64763;48.928;8.474;2022-12-17T09:40:00;22.92;;;10.05;;
76065;SDS011;64763;48.928;8.474;2022-12-17T09:42:48;24.40;;;10.50;;
76065;SDS011;64763;48.928;8.474;2022-12-17T09:49:00;23.00;;;10.48;;
76065;SDS011;64763;48.928;8.474;2022-12-17T09:51:46;17.05;;;10.25;;
76065;SDS011;64763;48.928;8.474;2022-12-17T09:54:35;23.98;;;11.60;;
76065;SDS011;64763;48.928;8.474;2022-12-17T09:57:22;22.85;;;11.25;;
76065;SDS011;64763;48.928;8.474;2022-12-17T10:03:00;23.45;;;10.45;;
76065;SDS011;64763;48.928;8.474;2022-12-17T10:05:45;24.10;;;11.45;;
76065;SDS011;64763;48.928;8.474;2022-12-17T10:08:29;21.42;;;10.45;;
76065;SDS011;64763;48.928;8.474;2022-12-17T10:11:28;25.70;;;11.90;;
76065;SDS011;64763;48.928;8.474;2022-12-17T10:14:17;25.98;;;11.70;;
76065;SDS011;64763;48.928;8.474;2022-12-17T10:17:02;25.40;;;12.23;;
76065;SDS011;64763;48.928;8.474;2022-12-17T10:19:51;26.95;;;11.82;;
76065;SDS011;64763;48.928;8.474;2022-12-17T10:22:49;28.77;;;12.68;;
76065;SDS011;64763;48.928;8.474;2022-12-17T10:25:33;26.38;;;12.05;;
76065;SDS011;64763;48.928;8.474;2022-12-17T10:28:19;25.70;;;12.70;;
76065;SDS011;64763;48.928;8.474;2022-12-17T10:31:14;29.27;;;12.98;;
76065;SDS011;64763;48.928;8.474;2022-12-17T10:33:59;24.85;;;11.73;;
76065;SDS011;64763;48.928;8.474;2022-12-17T10:36:47;32.33;;;12.57;;
76065;SDS011;64763;48.928;8.474;2022-12-17T10:39:33;24.80;;;11.63;;
76065;SDS011;64763;48.928;8.474;2022-12-17T10:42:21;30.40;;;12.85;;
76065;SDS011;64763;48.928;8.474;2022-12-17T10:45:17;32.83;;;14.05;;
76065;SDS011;64763;48.928;8.474;2022-12-17T10:48:21;33.10;;;13.38;;
76065;SDS011;64763;48.928;8.474;2022-12-17T10:57:07;34.08;;;14.63;;
76065;SDS011;64763;48.928;8.474;2022-12-17T10:59:51;34.00;;;15.63;;
76065;SDS011;64763;48.928;8.474;2022-12-17T11:02:35;34.75;;;15.95;;
76065;SDS011;64763;48.928;8.474;2022-12-17T11:05:27;37.08;;;15.90;;
76065;SDS011;64763;48.928;8.474;2022-12-17T11:08:13;32.85;;;15.00;;
76065;SDS011;64763;48.928;8.474;2022-12-17T11:10:58;38.42;;;15.63;;
76065;SDS011;64763;48.928;8.474;2022-12-17T11:13:45;40.00;;;16.63;;
76065;SDS011;64763;48.928;8.474;2022-12-17T11:22:45;37.90;;;15.57;;
76065;SDS011;64763;48.928;8.474;2022-12-17T11:28:24;31.73;;;14.43;;
76065;SDS011;64763;48.928;8.474;2022-12-17T11:34:23;28.75;;;12.80;;
76065;SDS011;64763;48.928;8.474;2022-12-17T11:42:43;28.33;;;13.68;;
76065;SDS011;64763;48.928;8.474;2022-12-17T11:45:32;27.75;;;14.80;;
76065;SDS011;64763;48.928;8.474;2022-12-17T11:48:43;25.08;;;13.25;;
76065;SDS011;64763;48.928;8.474;2022-12-17T11:52:04;26.75;;;13.45;;
76065;SDS011;64763;48.928;8.474;2022-12-17T11:54:56;28.27;;;14.45;;
76065;SDS011;64763;48.928;8.474;2022-12-17T12:00:35;28.15;;;13.32;;
76065;SDS011;64763;48.928;8.474;2022-12-17T12:03:48;28.70;;;14.02;;
76065;SDS011;64763;48.928;8.474;2022-12-17T12:09:51;27.27;;;14.00;;
76065;SDS011;64763;48.928;8.474;2022-12-17T12:13:34;31.65;;;14.77;;
76065;SDS011;64763;48.928;8.474;2022-12-17T12:16:21;28.98;;;13.32;;
76065;SDS011;64763;48.928;8.474;2022-12-17T12:19:15;26.13;;;14.65;;
76065;SDS011;64763;48.928;8.474;2022-12-17T12:25:05;31.13;;;16.27;;
76065;SDS011;64763;48.928;8.474;2022-12-17T12:34:06;28.05;;;14.18;;
76065;SDS011;64763;48.928;8.474;2022-12-17T12:36:54;32.97;;;15.82;;
76065;SDS011;64763;48.928;8.474;2022-12-17T12:39:42;26.95;;;14.52;;
76065;SDS011;64763;48.928;8.474;2022-12-17T12:42:35;28.70;;;14.63;;
76065;SDS011;64763;48.928;8.474;2022-12-17T12:51:11;35.97;;;15.95;;
76065;SDS011;64763;48.928;8.474;2022-12-17T12:53:57;34.15;;;16.23;;
76065;SDS011;64763;48.928;8.474;2022-12-17T12:56:42;33.08;;;16.45;;
76065;SDS011;64763;48.928;8.474;2022-12-17T12:59:27;34.90;;;16.40;;
76065;SDS011;64763;48.928;8.474;2022-12-17T13:02:23;31.40;;;16.05;;
76065;SDS011;64763;48.928;8.474;2022-12-17T13:10:33;32.38;;;15.35;;
76065;SDS011;64763;48.928;8.474;2022-12-17T13:13:10;32.00;;;14.50;;
76065;SDS011;64763;48.928;8.474;2022-12-17T13:16:15;31.63;;;15.82;;
76065;SDS011;64763;48.928;8.474;2022-12-17T13:23:39;34.33;;;16.30;;
76065;SDS011;64763;48.928;8.474;2022-12-17T13:26:14;29.35;;;16.42;;
76065;SDS011;64763;48.928;8.474;2022-12-17T13:41:10;27.83;;;15.00;;
76065;SDS011;64763;48.928;8.474;2022-12-17T13:43:38;30.02;;;15.13;;
76065;SDS011;64763;48.928;8.474;2022-12-17T13:46:23;27.65;;;14.98;;
76065;SDS011;64763;48.928;8.474;2022-12-17T13:48:54;35.67;;;16.95;;
76065;SDS011;64763;48.928;8.474;2022-12-17T13:51:25;30.67;;;15.63;;
76065;SDS011;64763;48.928;8.474;2022-12-17T13:53:53;32.33;;;17.10;;
76065;SDS011;64763;48.928;8.474;2022-12-17T13:56:27;31.10;;;16.13;;
76065;SDS011;64763;48.928;8.474;2022-12-17T13:58:54;34.50;;;16.05;;
76065;SDS011;64763;48.928;8.474;2022-12-17T14:01:21;33.78;;;16.42;;
76065;SDS011;64763;48.928;8.474;2022-12-17T14:03:53;32.08;;;16.38;;
76065;SDS011;64763;48.928;8.474;2022-12-17T14:06:21;37.50;;;16.90;;
76065;SDS011;64763;48.928;8.474;2022-12-17T14:08:48;35.80;;;15.85;;
76065;SDS011;64763;48.928;8.474;2022-12-17T14:11:14;38.05;;;18.65;;
76065;SDS011;64763;48.928;8.474;2022-12-17T14:13:58;37.97;;;16.58;;
76065;SDS011;64763;48.928;8.474;2022-12-17T14:18:53;42.57;;;17.40;;
76065;SDS011;64763;48.928;8.474;2022-12-17T14:21:20;38.90;;;17.20;;
76065;SDS011;64763;48.928;8.474;2022-12-17T14:26:12;35.60;;;16.13;;
76065;SDS011;64763;48.928;8.474;2022-12-17T14:31:32;37.80;;;15.63;;
76065;SDS011;64763;48.928;8.474;2022-12-17T14:36:26;42.03;;;17.23;;
76065;SDS011;64763;48.928;8.474;2022-12-17T14:41:18;42.33;;;17.60;;
76065;SDS011;64763;48.928;8.474;2022-12-17T14:44:02;42.75;;;17.55;;
76065;SDS011;64763;48.928;8.474;2022-12-17T14:46:28;39.72;;;16.55;;
76065;SDS011;64763;48.928;8.474;2022-12-17T14:48:55;37.63;;;16.95;;
76065;SDS011;64763;48.928;8.474;2022-12-17T14:51:40;43.40;;;17.17;;
76065;SDS011;64763;48.928;8.474;2022-12-17T14:59:02;38.80;;;16.37;;
76065;SDS011;64763;48.928;8.474;2022-12-17T15:01:28;40.42;;;18.48;;
76065;SDS011;64763;48.928;8.474;2022-12-17T15:03:53;43.97;;;18.58;;
76065;SDS011;64763;48.928;8.474;2022-12-17T15:06:20;46.70;;;19.27;;
76065;SDS011;64763;48.928;8.474;2022-12-17T15:08:46;45.67;;;17.55;;
76065;SDS011;64763;48.928;8.474;2022-12-17T15:11:14;44.95;;;18.63;;
76065;SDS011;64763;48.928;8.474;2022-12-17T15:13:41;48.67;;;19.58;;
76065;SDS011;64763;48.928;8.474;2022-12-17T15:16:07;46.42;;;18.70;;
76065;SDS011;64763;48.928;8.474;2022-12-17T15:18:32;47.17;;;20.10;;
76065;SDS011;64763;48.928;8.474;2022-12-17T15:20:58;42.97;;;18.00;;
76065;SDS011;64763;48.928;8.474;2022-12-17T15:25:49;42.45;;;18.60;;
76065;SDS011;64763;48.928;8.474;2022-12-17T15:28:16;45.70;;;18.75;;
76065;SDS011;64763;48.928;8.474;2022-12-17T15:30:42;50.67;;;20.20;;
76065;SDS011;64763;48.928;8.474;2022-12-17T15:33:08;50.15;;;20.15;;
76065;SDS011;64763;48.928;8.474;2022-12-17T15:38:00;45.45;;;17.40;;
76065;SDS011;64763;48.928;8.474;2022-12-17T15:40:26;43.80;;;17.73;;
76065;SDS011;64763;48.928;8.474;2022-12-17T15:42:51;49.15;;;19.52;;
76065;SDS011;64763;48.928;8.474;2022-12-17T15:45:35;49.75;;;19.67;;
76065;SDS011;64763;48.928;8.474;2022-12-17T15:48:02;47.90;;;19.23;;
76065;SDS011;64763;48.928;8.474;2022-12-17T15:50:27;52.65;;;19.73;;
76065;SDS011;64763;48.928;8.474;2022-12-17T15:52:52;59.85;;;22.10;;
76065;SDS011;64763;48.928;8.474;2022-12-17T15:55:18;53.92;;;20.08;;
76065;SDS011;64763;48.928;8.474;2022-12-17T15:57:43;49.40;;;20.25;;
76065;SDS011;64763;48.928;8.474;2022-12-17T16:00:09;58.40;;;22.92;;
76065;SDS011;64763;48.928;8.474;2022-12-17T16:02:35;56.75;;;22.08;;
76065;SDS011;64763;48.928;8.474;2022-12-17T16:05:00;63.50;;;22.58;;
76065;SDS011;64763;48.928;8.474;2022-12-17T16:07:26;54.78;;;22.10;;
76065;SDS011;64763;48.928;8.474;2022-12-17T16:09:51;63.63;;;23.10;;
76065;SDS011;64763;48.928;8.474;2022-12-17T16:12:17;56.33;;;22.60;;
76065;SDS011;64763;48.928;8.474;2022-12-17T16:14:42;58.30;;;22.13;;
76065;SDS011;64763;48.928;8.474;2022-12-17T16:17:07;52.55;;;22.38;;
76065;SDS011;64763;48.928;8.474;2022-12-17T16:19:33;52.65;;;20.80;;
76065;SDS011;64763;48.928;8.474;2022-12-17T16:21:58;53.58;;;21.73;;
76065;SDS011;64763;48.928;8.474;2022-12-17T16:24:23;64.72;;;22.58;;
76065;SDS011;64763;48.928;8.474;2022-12-17T16:26:49;55.03;;;22.30;;
76065;SDS011;64763;48.928;8.474;2022-12-17T16:29:14;57.60;;;23.33;;
76065;SDS011;64763;48.928;8.474;2022-12-17T16:31:39;57.72;;;23.58;;
76065;SDS011;64763;48.928;8.474;2022-12-17T16:34:08;59.38;;;21.63;;
76065;SDS011;64763;48.928;8.474;2022-12-17T16:36:34;58.10;;;22.80;;
76065;SDS011;64763;48.928;8.474;2022-12-17T16:39:00;65.60;;;26.10;;
76065;SDS011;64763;48.928;8.474;2022-12-17T16:41:25;61.00;;;24.58;;
76065;SDS011;64763;48.928;8.474;2022-12-17T16:43:50;67.78;;;24.00;;
76065;SDS011;64763;48.928;8.474;2022-12-17T16:46:22;61.17;;;24.38;;
76065;SDS011;64763;48.928;8.474;2022-12-17T16:48:47;69.85;;;26.00;;
76065;SDS011;64763;48.928;8.474;2022-12-17T16:51:14;70.28;;;26.02;;
76065;SDS011;64763;48.928;8.474;2022-12-17T16:53:41;75.00;;;28.80;;
76065;SDS011;64763;48.928;8.474;2022-12-17T16:56:06;66.60;;;25.48;;
76065;SDS011;64763;48.928;8.474;2022-12-17T16:58:32;68.13;;;26.63;;
76065;SDS011;64763;48.928;8.474;2022-12-17T17:00:57;62.17;;;23.83;;
76065;SDS011;64763;48.928;8.474;2022-12-17T17:03:22;62.70;;;23.35;;
76065;SDS011;64763;48.928;8.474;2022-12-17T17:05:48;64.90;;;25.10;;
76065;SDS011;64763;48.928;8.474;2022-12-17T17:08:13;52.22;;;21.02;;
76065;SDS011;64763;48.928;8.474;2022-12-17T17:10:39;55.83;;;21.83;;
76065;SDS011;64763;48.928;8.474;2022-12-17T17:13:05;62.97;;;23.83;;
76065;SDS011;64763;48.928;8.474;2022-12-17T17:15:30;64.55;;;24.98;;
76065;SDS011;64763;48.928;8.474;2022-12-17T17:17:55;64.35;;;26.83;;
76065;SDS011;64763;48.928;8.474;2022-12-17T17:20:21;67.25;;;26.63;;
76065;SDS011;64763;48.928;8.474;2022-12-17T17:22:46;62.78;;;25.00;;
76065;SDS011;64763;48.928;8.474;2022-12-17T17:25:11;62.08;;;23.45;;
76065;SDS011;64763;48.928;8.474;2022-12-17T17:27:37;62.53;;;24.02;;
76065;SDS011;64763;48.928;8.474;2022-12-17T17:30:02;67.25;;;26.77;;
76065;SDS011;64763;48.928;8.474;2022-12-17T17:32:28;62.20;;;23.67;;